Kezdőlap
METAR-TAF:

METAR-TAF

Repülőterek :

Tahiti, Francia Polinézia

földrajzi szélesség: 17-33S, földrajzi hosszúság: 149-37W, magasság: 2 m

Jelenlegi meteorológiai megfigyelések

A jelentés 51 perccel ezelõtt készült, 15:30 UTC
Kelet-délkeleti szél 5 kt
Hőmérséklet 24°C
Páratartalom 78%
Légköri nyomás 1014 hPa
Látótávolság 10 km, vagy több
Kevés felhő 2600 lábon

METAR: NTAA 281530Z 11005KT 9999 FEW026 24/20 Q1014 NOSIG

Idő: 06:21 (16:21 UTC)

Előrejelzés

A jelentés 5 órával és 21 perccel ezelõtt készült, 11:00 UTC
Az előrejelzés 28-én 12 óra UTC és 29-én 18 óra UTC között érvényes
Különbözõ irányokból fújó szél 5 kt
Látótávolság 10 km, vagy több
Kevés felhő 2500 lábon
Valószínűség 40% :
28-én 20 óra UTC és 29-én 03 óra UTC között ideiglenes
Északkeleti szél 15 kt

TAF: NTAA 281100Z 2812/2918 VRB05KT 9999 FEW025 PROB40 TEMPO 2820/2903 05015KT

Meteorológiai megfigyelések és előrejelzések több, mint 4000 repülőtéren (METAR és TAF jelentéseket).

A térképen piros és sárga pontok jelzik az elérhető meteorológiai állomásokat.

Mozgassa az egeret a pont fölött, hogy megjelenjen az állomás neve.

Azután kattintson az időjárási megfigyelések és előrejelzések megtekintéséhez.

A térkép megváltoztatása: kattintson a fekete keresztel jelölt zöld gombra ráközelítéshez, a vonallal jelölt zöld gombra távolításhoz, vagy a zöld nyilakra a szomszédos térképek eléréséhez.


METAR-TAF: